createdAt,value
2023-03-18T00:01:01.626Z,98357.66
2023-03-18T00:03:28.788Z,98355.16
2023-03-18T00:06:07.358Z,98350.13
2023-03-18T00:08:34.822Z,98355.31
2023-03-18T00:11:02.334Z,98349.53
2023-03-18T00:13:29.424Z,98354.38
2023-03-18T00:15:56.661Z,98357.34
2023-03-18T00:18:23.679Z,98348.25
2023-03-18T00:20:50.715Z,98357.16
2023-03-18T00:23:18.288Z,98342.72
2023-03-18T00:25:48.715Z,98342.75
2023-03-18T00:28:18.436Z,98339.78
2023-03-18T00:30:46.509Z,98338.47
2023-03-18T00:33:14.111Z,98332.25
2023-03-18T00:35:41.289Z,98338.13
2023-03-18T00:38:10.208Z,98331.97
2023-03-18T00:40:43.513Z,98329.72
2023-03-18T00:43:12.875Z,98331.34
2023-03-18T00:45:41.558Z,98329.59
2023-03-18T00:48:09.057Z,98332.97
2023-03-18T00:50:37.169Z,98332.44
2023-03-18T00:53:04.290Z,98334.25
2023-03-18T00:55:31.602Z,98332.69
2023-03-18T00:57:59.038Z,98336.84
2023-03-18T01:00:26.368Z,98333.38
2023-03-18T01:02:53.983Z,98319.50
2023-03-18T01:05:22.188Z,98330.78
2023-03-18T01:07:49.676Z,98332.09
2023-03-18T01:10:17.074Z,98329.31
2023-03-18T01:12:47.285Z,98337.38
2023-03-18T01:15:17.825Z,98331.00
2023-03-18T01:17:46.615Z,98338.25
2023-03-18T01:20:17.270Z,98336.00
2023-03-18T01:22:47.341Z,98330.94
2023-03-18T01:25:16.497Z,98328.97
2023-03-18T01:27:47.756Z,98335.38
2023-03-18T01:30:15.172Z,98333.94
2023-03-18T01:32:44.017Z,98341.94
2023-03-18T01:35:12.538Z,98336.75
2023-03-18T01:37:46.895Z,98336.06
2023-03-18T01:40:16.283Z,98337.44
2023-03-18T01:42:49.785Z,98334.16
2023-03-18T01:45:24.385Z,98323.75
2023-03-18T01:47:56.136Z,98325.34
2023-03-18T01:50:27.412Z,98323.22
2023-03-18T01:52:59.461Z,98326.75
2023-03-18T01:55:30.726Z,98333.84
2023-03-18T01:57:59.889Z,98331.91
2023-03-18T02:00:28.659Z,98338.31
2023-03-18T02:02:55.962Z,98337.00
2023-03-18T02:07:52.899Z,98345.38
2023-03-18T02:10:24.699Z,98342.75
2023-03-18T02:12:58.480Z,98330.47
2023-03-18T02:15:31.990Z,98343.94
2023-03-18T02:18:09.933Z,98336.13
2023-03-18T02:20:42.978Z,98330.13
2023-03-18T02:23:33.666Z,98331.16
2023-03-18T02:26:23.161Z,98329.94
2023-03-18T02:28:52.604Z,98323.53
2023-03-18T02:31:20.339Z,98328.09
2023-03-18T02:33:48.025Z,98324.88
2023-03-18T02:36:20.424Z,98323.78
2023-03-18T02:38:47.994Z,98321.88
2023-03-18T02:41:25.386Z,98322.59
2023-03-18T02:43:53.273Z,98322.59
2023-03-18T02:46:38.468Z,98329.13
2023-03-18T02:50:15.147Z,98320.97
2023-03-18T02:52:42.882Z,98319.16
2023-03-18T02:55:10.010Z,98322.56
2023-03-18T02:57:37.381Z,98323.53
2023-03-18T03:00:05.916Z,98321.75
2023-03-18T03:02:33.390Z,98320.59
2023-03-18T03:05:00.491Z,98321.78
2023-03-18T03:07:28.112Z,98332.22
2023-03-18T03:09:57.455Z,98322.88
2023-03-18T03:12:24.997Z,98327.88
2023-03-18T03:14:56.747Z,98322.78
2023-03-18T03:17:27.225Z,98323.59
2023-03-18T03:19:54.917Z,98310.41
2023-03-18T03:23:31.134Z,98317.16
2023-03-18T03:25:58.258Z,98315.59
2023-03-18T03:28:27.270Z,98316.34
2023-03-18T03:30:55.988Z,98321.31
2023-03-18T03:33:23.577Z,98306.03
2023-03-18T03:35:51.820Z,98305.09
2023-03-18T03:38:18.967Z,98307.50
2023-03-18T03:40:47.993Z,98310.91
2023-03-18T03:43:15.791Z,98304.19
2023-03-18T03:45:46.837Z,98302.72
2023-03-18T03:48:14.624Z,98310.41
2023-03-18T03:50:42.043Z,98305.81
2023-03-18T03:53:10.511Z,98298.91
2023-03-18T03:55:38.022Z,98301.78
2023-03-18T03:58:05.314Z,98312.09
2023-03-18T04:00:33.672Z,98308.72
2023-03-18T04:03:01.296Z,98298.66
2023-03-18T04:05:29.696Z,98305.66
2023-03-18T04:08:00.301Z,98305.81
2023-03-18T04:10:36.904Z,98317.91
2023-03-18T04:13:06.182Z,98307.09
2023-03-18T04:15:34.430Z,98310.13
2023-03-18T04:18:19.861Z,98308.66
2023-03-18T04:20:48.054Z,98307.63
2023-03-18T04:23:26.896Z,98312.19
2023-03-18T04:25:54.030Z,98293.94
2023-03-18T04:28:21.455Z,98305.94
2023-03-18T04:30:50.072Z,98305.03
2023-03-18T04:33:19.548Z,98305.22
2023-03-18T04:35:48.773Z,98310.22
2023-03-18T04:38:18.125Z,98301.56
2023-03-18T04:40:46.012Z,98301.41
2023-03-18T04:43:13.164Z,98298.16
2023-03-18T04:45:40.211Z,98298.41
2023-03-18T04:48:22.614Z,98304.53
2023-03-18T04:50:49.967Z,98300.78
2023-03-18T04:53:23.286Z,98301.16
2023-03-18T04:55:51.757Z,98295.22
2023-03-18T04:58:23.476Z,98309.09
2023-03-18T05:01:02.312Z,98302.88
2023-03-18T05:03:35.052Z,98307.84
2023-03-18T05:06:03.013Z,98309.59
2023-03-18T05:08:40.591Z,98310.31
2023-03-18T05:11:07.705Z,98313.47
2023-03-18T05:13:36.447Z,98314.41
2023-03-18T05:16:05.028Z,98320.22
2023-03-18T05:18:33.823Z,98315.59
2023-03-18T05:21:04.121Z,98325.63
2023-03-18T05:23:32.660Z,98320.97
2023-03-18T05:26:00.260Z,98329.97
2023-03-18T05:28:29.292Z,98329.13
2023-03-18T05:31:14.802Z,98329.84
2023-03-18T05:33:42.637Z,98327.75
2023-03-18T05:36:12.099Z,98328.38
2023-03-18T05:38:49.782Z,98321.91
2023-03-18T05:41:17.454Z,98318.94
2023-03-18T05:43:44.747Z,98309.16
2023-03-18T05:46:12.944Z,98319.00
2023-03-18T05:49:04.117Z,98309.84
2023-03-18T05:51:41.095Z,98308.72
2023-03-18T05:54:11.893Z,98302.81
2023-03-18T05:56:43.652Z,98309.22
2023-03-18T05:59:11.830Z,98318.56
2023-03-18T06:01:46.347Z,98318.66
2023-03-18T06:04:13.329Z,98321.47
2023-03-18T06:06:41.312Z,98318.31
2023-03-18T06:09:10.920Z,98320.38
2023-03-18T06:11:39.061Z,98317.31
2023-03-18T06:14:07.820Z,98319.94
2023-03-18T06:16:36.030Z,98318.38
2023-03-18T06:19:12.068Z,98316.91
2023-03-18T06:21:40.235Z,98316.13
2023-03-18T06:24:08.659Z,98327.25
2023-03-18T06:26:36.873Z,98322.50
2023-03-18T06:29:05.586Z,98320.25
2023-03-18T06:31:32.962Z,98324.28
2023-03-18T06:34:01.533Z,98317.88
2023-03-18T06:36:33.629Z,98325.50
2023-03-18T06:39:02.597Z,98321.81
2023-03-18T06:41:30.775Z,98335.41
2023-03-18T06:44:20.196Z,98334.84
2023-03-18T06:46:47.583Z,98346.69
2023-03-18T06:49:17.678Z,98337.19
2023-03-18T06:51:51.154Z,98346.47
2023-03-18T06:54:18.669Z,98345.06
2023-03-18T06:56:46.807Z,98362.34
2023-03-18T06:59:19.315Z,98356.50
2023-03-18T07:01:46.869Z,98353.91
2023-03-18T07:04:16.507Z,98356.59
2023-03-18T07:06:43.661Z,98348.72
2023-03-18T07:09:12.721Z,98358.19
2023-03-18T07:11:40.859Z,98342.63
2023-03-18T07:14:14.692Z,98348.69
2023-03-18T07:16:43.483Z,98352.59
2023-03-18T07:19:11.708Z,98353.97
2023-03-18T07:21:40.758Z,98356.31
2023-03-18T07:24:07.817Z,98346.47
2023-03-18T07:26:35.101Z,98335.97
2023-03-18T07:29:02.279Z,98339.44
2023-03-18T07:31:30.570Z,98345.38
2023-03-18T07:33:57.662Z,98344.63
2023-03-18T07:36:25.351Z,98351.31
2023-03-18T07:38:52.692Z,98342.38
2023-03-18T07:41:19.752Z,98343.50
2023-03-18T07:43:46.749Z,98348.97
2023-03-18T07:46:14.332Z,98340.28
2023-03-18T07:48:41.895Z,98332.31
2023-03-18T07:51:08.905Z,98341.38
2023-03-18T07:53:36.302Z,98349.28
2023-03-18T07:56:03.586Z,98350.50
2023-03-18T07:58:30.635Z,98336.09
2023-03-18T08:00:57.855Z,98344.16
2023-03-18T08:03:24.851Z,98344.84
2023-03-18T08:05:51.978Z,98353.78
2023-03-18T08:08:18.967Z,98353.84
2023-03-18T08:10:52.529Z,98356.13
2023-03-18T08:13:20.562Z,98343.63
2023-03-18T08:15:48.385Z,98349.63
2023-03-18T08:18:15.397Z,98354.91
2023-03-18T08:20:42.487Z,98353.44
2023-03-18T08:23:09.668Z,98363.25
2023-03-18T08:25:36.968Z,98361.84
2023-03-18T08:28:07.343Z,98361.22
2023-03-18T08:30:35.469Z,98364.63
2023-03-18T08:33:03.000Z,98364.34
2023-03-18T08:35:31.084Z,98370.28
2023-03-18T08:37:58.364Z,98355.06
2023-03-18T08:40:26.344Z,98351.44
2023-03-18T08:42:54.087Z,98352.25
2023-03-18T08:45:21.352Z,98347.00
2023-03-18T08:47:48.621Z,98357.13
2023-03-18T08:50:15.875Z,98349.00
2023-03-18T08:52:42.832Z,98350.44
2023-03-18T08:55:10.131Z,98352.78
2023-03-18T08:57:38.023Z,98364.06
2023-03-18T09:00:06.135Z,98370.34
2023-03-18T09:02:33.890Z,98374.00
2023-03-18T09:05:01.001Z,98364.91
2023-03-18T09:07:28.764Z,98369.53
2023-03-18T09:09:55.809Z,98373.44
2023-03-18T09:12:23.326Z,98376.13
2023-03-18T09:14:50.651Z,98381.56
2023-03-18T09:17:17.690Z,98388.22
2023-03-18T09:19:44.721Z,98384.88
2023-03-18T09:22:11.889Z,98370.50
2023-03-18T09:24:39.550Z,98373.84
2023-03-18T09:27:06.627Z,98377.38
2023-03-18T09:29:33.703Z,98385.19
2023-03-18T09:32:00.760Z,98380.28
2023-03-18T09:34:27.855Z,98382.72
2023-03-18T09:36:54.948Z,98382.84
2023-03-18T09:39:22.785Z,98383.56
2023-03-18T09:42:07.942Z,98379.06
2023-03-18T10:17:24.485Z,98359.47
2023-03-18T10:19:58.630Z,98361.69
2023-03-18T10:23:14.838Z,98366.63
2023-03-18T10:25:53.780Z,98358.91
2023-03-18T10:28:30.138Z,98371.00
2023-03-18T10:31:11.178Z,98351.63
2023-03-18T10:34:01.474Z,98352.22
2023-03-18T10:36:39.981Z,98349.06
2023-03-18T10:39:21.083Z,98343.19
2023-03-18T10:41:50.309Z,98343.41
2023-03-18T10:44:26.932Z,98340.53
2023-03-18T10:46:59.498Z,98338.22
2023-03-18T10:49:38.877Z,98340.91
2023-03-18T10:52:18.743Z,98326.56
2023-03-18T10:54:53.072Z,98333.91
2023-03-18T10:57:22.154Z,98334.53
2023-03-18T10:59:52.423Z,98341.53
2023-03-18T11:02:35.116Z,98341.22
2023-03-18T11:05:24.739Z,98334.13
2023-03-18T11:08:29.599Z,98321.50
2023-03-18T11:10:57.574Z,98320.16
2023-03-18T11:13:27.216Z,98319.00
2023-03-18T11:15:59.375Z,98316.94
2023-03-18T11:18:27.642Z,98323.81
2023-03-18T11:21:00.973Z,98323.91
2023-03-18T11:23:46.316Z,98318.06
2023-03-18T11:26:30.039Z,98309.53
2023-03-18T11:28:59.202Z,98306.47
2023-03-18T11:31:28.094Z,98318.59
2023-03-18T11:33:59.264Z,98311.72
2023-03-18T11:36:28.170Z,98314.63
2023-03-18T11:39:02.931Z,98313.28
2023-03-18T11:41:32.898Z,98311.69
2023-03-18T11:44:01.632Z,98305.81
2023-03-18T11:47:01.220Z,98310.84
2023-03-18T11:49:29.655Z,98318.94
2023-03-18T11:52:11.997Z,98310.78
2023-03-18T11:55:27.301Z,98314.31
2023-03-18T11:58:18.725Z,98319.94
2023-03-18T12:01:09.064Z,98328.78
2023-03-18T12:04:01.144Z,98329.53
2023-03-18T12:06:30.882Z,98330.28
2023-03-18T12:09:17.098Z,98331.03
2023-03-18T12:11:53.533Z,98322.66
2023-03-18T12:14:41.052Z,98327.84
2023-03-18T12:17:25.774Z,98326.72
2023-03-18T12:19:52.783Z,98323.09
2023-03-18T12:22:35.981Z,98319.13
2023-03-18T12:25:10.542Z,98315.56
2023-03-18T12:27:53.669Z,98315.75
2023-03-18T12:30:46.081Z,98319.53
2023-03-18T12:33:19.169Z,98308.28
2023-03-18T12:36:20.717Z,98315.16
2023-03-18T12:38:56.866Z,98319.53
2023-03-18T12:41:27.813Z,98317.16
2023-03-18T12:44:27.846Z,98313.78
2023-03-18T12:47:15.510Z,98313.69
2023-03-18T12:49:49.592Z,98311.94
2023-03-18T12:52:43.637Z,98328.50
2023-03-18T12:55:43.066Z,98327.69
2023-03-18T12:58:23.267Z,98330.28
2023-03-18T13:01:18.242Z,98336.72
2023-03-18T13:04:07.793Z,98342.47
2023-03-18T13:06:50.285Z,98338.28
2023-03-18T13:09:44.905Z,98325.25
2023-03-18T13:12:18.056Z,98335.50
2023-03-18T13:14:59.925Z,98320.50
2023-03-18T13:17:33.224Z,98334.34
2023-03-18T13:20:02.360Z,98324.00
2023-03-18T13:22:42.406Z,98322.00
2023-03-18T13:25:32.028Z,98316.25
2023-03-18T13:28:33.162Z,98317.06
2023-03-18T13:31:13.149Z,98322.50
2023-03-18T13:34:31.787Z,98315.75
2023-03-18T13:37:37.841Z,98320.03
2023-03-18T13:40:34.325Z,98329.34
2023-03-18T13:43:02.631Z,98324.13
2023-03-18T13:45:37.903Z,98310.13
2023-03-18T13:48:16.587Z,98308.53
2023-03-18T13:50:48.744Z,98310.31
2023-03-18T13:53:26.754Z,98304.59
2023-03-18T13:55:56.348Z,98322.16
2023-03-18T13:58:35.002Z,98313.06
2023-03-18T14:01:29.460Z,98311.41
2023-03-18T14:05:05.414Z,98313.06
2023-03-18T14:07:33.186Z,98302.00
2023-03-18T14:10:15.296Z,98302.47
2023-03-18T14:12:48.195Z,98303.59
2023-03-18T14:15:15.823Z,98301.38
2023-03-18T14:17:48.833Z,98296.28
2023-03-18T14:20:19.157Z,98301.09
2023-03-18T14:23:07.841Z,98297.31
2023-03-18T14:25:41.644Z,98300.03
2023-03-18T14:28:09.487Z,98304.19
2023-03-18T14:30:37.248Z,98301.47
2023-03-18T14:33:29.874Z,98300.28
2023-03-18T14:36:10.122Z,98301.41
2023-03-18T14:39:14.241Z,98293.22
2023-03-18T14:41:47.308Z,98298.25
2023-03-18T14:44:39.027Z,98295.94
2023-03-18T14:47:38.933Z,98303.81
2023-03-18T14:50:16.737Z,98299.34
2023-03-18T14:52:52.371Z,98300.00
2023-03-18T14:55:28.048Z,98303.44
2023-03-18T14:57:55.072Z,98305.47
2023-03-18T15:00:24.366Z,98299.53
2023-03-18T15:03:01.862Z,98304.06
2023-03-18T15:05:35.221Z,98308.06
2023-03-18T15:08:07.299Z,98311.03
2023-03-18T15:10:34.310Z,98311.75
2023-03-18T15:13:12.727Z,98306.41
2023-03-18T15:15:41.580Z,98303.22
2023-03-18T15:18:29.547Z,98296.19
2023-03-18T15:21:19.834Z,98307.22
2023-03-18T15:23:51.261Z,98322.13
2023-03-18T15:26:29.077Z,98328.00
2023-03-18T15:28:58.865Z,98322.72
2023-03-18T15:31:38.729Z,98328.72
2023-03-18T15:34:15.767Z,98328.66
2023-03-18T15:36:55.644Z,98338.28
2023-03-18T15:39:37.482Z,98338.28
2023-03-18T15:42:16.108Z,98352.31
2023-03-18T15:44:46.319Z,98351.28
2023-03-18T15:47:20.084Z,98351.19
2023-03-18T15:50:09.793Z,98339.88
2023-03-18T15:52:41.989Z,98343.31
2023-03-18T15:55:31.241Z,98348.50
2023-03-18T15:57:58.709Z,98343.97
2023-03-18T16:00:26.010Z,98346.56
2023-03-18T16:02:53.875Z,98350.75
2023-03-18T16:05:26.827Z,98359.47
2023-03-18T16:07:54.679Z,98348.88
2023-03-18T16:10:23.999Z,98360.03
2023-03-18T16:12:55.149Z,98355.66
2023-03-18T16:15:24.174Z,98362.78
2023-03-18T16:17:53.596Z,98360.97
2023-03-18T16:20:26.211Z,98371.88
2023-03-18T16:22:53.725Z,98364.94
2023-03-18T16:25:20.862Z,98369.13
2023-03-18T16:27:51.101Z,98371.72
2023-03-18T16:30:18.232Z,98362.16
2023-03-18T16:32:46.721Z,98359.66
2023-03-18T16:35:16.080Z,98369.22
2023-03-18T16:37:44.437Z,98357.06
2023-03-18T16:40:20.540Z,98366.69
2023-03-18T16:42:48.202Z,98366.97
2023-03-18T16:45:17.943Z,98372.81
2023-03-18T16:47:50.148Z,98368.28
2023-03-18T16:50:23.243Z,98372.75
2023-03-18T16:52:51.123Z,98364.09
2023-03-18T16:55:19.540Z,98371.72
2023-03-18T16:58:08.534Z,98379.34
2023-03-18T17:00:35.683Z,98369.13
2023-03-18T17:03:02.738Z,98372.66
2023-03-18T17:05:29.939Z,98380.34
2023-03-18T17:07:57.072Z,98375.16
2023-03-18T17:10:27.212Z,98380.16
2023-03-18T17:12:59.748Z,98384.69
2023-03-18T17:15:32.099Z,98386.19
2023-03-18T17:17:59.906Z,98378.47
2023-03-18T17:20:29.392Z,98386.25
2023-03-18T17:22:56.403Z,98378.66
2023-03-18T17:25:27.256Z,98376.81
2023-03-18T17:27:59.836Z,98372.44
2023-03-18T17:30:38.116Z,98369.84
2023-03-18T17:33:27.345Z,98383.66
2023-03-18T17:35:55.182Z,98388.22
2023-03-18T17:38:22.363Z,98384.34
2023-03-18T17:40:50.790Z,98382.66
2023-03-18T17:43:22.693Z,98390.47
2023-03-18T17:45:50.845Z,98389.44
2023-03-18T17:48:26.268Z,98387.97
2023-03-18T17:50:58.142Z,98400.84
2023-03-18T17:53:33.602Z,98399.91
2023-03-18T17:56:03.279Z,98395.47
2023-03-18T17:58:32.374Z,98401.22
2023-03-18T18:01:06.718Z,98402.06
2023-03-18T18:03:36.306Z,98403.09
2023-03-18T18:06:03.869Z,98403.09
2023-03-18T18:08:31.811Z,98404.59
2023-03-18T18:11:10.393Z,98393.53
2023-03-18T18:13:37.392Z,98398.56
2023-03-18T18:16:04.613Z,98408.38
2023-03-18T18:18:32.964Z,98406.69
2023-03-18T18:21:02.888Z,98409.78
2023-03-18T18:23:35.732Z,98412.53
2023-03-18T18:26:09.118Z,98415.13
2023-03-18T18:28:38.706Z,98415.72
2023-03-18T18:31:09.388Z,98415.97
2023-03-18T18:33:38.263Z,98415.81
2023-03-18T18:36:07.081Z,98420.81
2023-03-18T18:38:34.221Z,98412.28
2023-03-18T18:41:01.961Z,98419.88
2023-03-18T18:43:29.227Z,98434.56
2023-03-18T18:45:57.829Z,98429.16
2023-03-18T18:48:24.806Z,98423.50
2023-03-18T18:50:52.516Z,98421.47
2023-03-18T18:53:28.332Z,98431.03
2023-03-18T18:56:01.380Z,98430.19
2023-03-18T18:58:33.027Z,98431.19
2023-03-18T19:01:00.553Z,98425.84
2023-03-18T19:03:31.414Z,98423.41
2023-03-18T19:06:01.120Z,98427.88
2023-03-18T19:08:31.955Z,98426.66
2023-03-18T19:11:04.369Z,98431.75
2023-03-18T19:13:34.375Z,98424.06
2023-03-18T19:16:05.183Z,98430.75
2023-03-18T19:18:38.910Z,98428.22
2023-03-18T19:21:07.005Z,98427.41
2023-03-18T19:23:35.454Z,98434.25
2023-03-18T19:26:04.557Z,98435.84
2023-03-18T19:28:58.587Z,98435.97
2023-03-18T19:31:30.924Z,98428.78
2023-03-18T19:34:00.368Z,98420.94
2023-03-18T19:36:49.063Z,98434.75
2023-03-18T19:39:18.933Z,98438.34
2023-03-18T19:41:51.242Z,98438.19
2023-03-18T19:44:21.729Z,98434.81
2023-03-18T19:46:52.121Z,98436.59
2023-03-18T19:49:26.599Z,98427.78
2023-03-18T19:51:54.906Z,98437.25
2023-03-18T19:54:29.344Z,98429.63
2023-03-18T19:57:00.722Z,98427.88
2023-03-18T19:59:37.445Z,98431.50
2023-03-18T20:02:27.570Z,98435.66
2023-03-18T20:05:00.297Z,98434.09
2023-03-18T20:07:30.056Z,98428.78
2023-03-18T20:09:57.382Z,98435.13
2023-03-18T20:12:24.414Z,98435.03
2023-03-18T20:14:51.974Z,98422.97
2023-03-18T20:17:24.803Z,98422.75
2023-03-18T20:19:52.158Z,98427.88
2023-03-18T20:22:33.790Z,98436.44
2023-03-18T20:25:02.256Z,98434.47
2023-03-18T20:27:30.410Z,98435.50
2023-03-18T20:29:58.627Z,98443.38
2023-03-18T20:32:26.460Z,98439.84
2023-03-18T20:34:53.725Z,98441.41
2023-03-18T20:37:34.871Z,98443.19
2023-03-18T20:40:10.908Z,98440.53
2023-03-18T20:42:37.944Z,98437.06
2023-03-18T20:45:15.130Z,98431.69
2023-03-18T20:47:44.052Z,98434.19
2023-03-18T20:50:17.062Z,98436.06
2023-03-18T20:52:45.608Z,98425.56
2023-03-18T20:55:35.566Z,98433.19
2023-03-18T20:58:04.141Z,98418.53
2023-03-18T21:00:33.334Z,98433.09
2023-03-18T21:03:02.501Z,98427.06
2023-03-18T21:05:29.520Z,98430.47
2023-03-18T21:07:56.766Z,98421.13
2023-03-18T21:10:26.473Z,98425.28
2023-03-18T21:12:53.597Z,98425.38
2023-03-18T21:15:22.537Z,98422.84
2023-03-18T21:17:50.073Z,98423.72
2023-03-18T21:20:22.392Z,98423.53
2023-03-18T21:22:50.979Z,98402.94
2023-03-18T21:25:23.470Z,98408.28
2023-03-18T21:27:51.699Z,98416.00
2023-03-18T21:30:22.673Z,98419.34
2023-03-18T21:32:51.134Z,98433.81
2023-03-18T21:35:23.192Z,98433.19
2023-03-18T21:37:51.010Z,98436.41
2023-03-18T21:40:21.851Z,98435.41
2023-03-18T21:42:51.891Z,98419.91
2023-03-18T21:45:23.829Z,98407.09
2023-03-18T21:47:52.728Z,98410.72
2023-03-18T21:50:25.279Z,98419.34
2023-03-18T21:52:53.751Z,98414.78
2023-03-18T21:55:21.742Z,98416.75
2023-03-18T21:57:49.580Z,98408.03
2023-03-18T22:00:21.196Z,98418.31
2023-03-18T22:02:49.036Z,98418.16
2023-03-18T22:05:22.188Z,98423.53
2023-03-18T22:07:51.039Z,98421.66
2023-03-18T22:10:23.773Z,98423.53
2023-03-18T22:12:51.216Z,98429.19
2023-03-18T22:15:23.946Z,98433.66
2023-03-18T22:17:52.007Z,98440.50
2023-03-18T22:20:19.250Z,98442.84
2023-03-18T22:22:47.662Z,98443.09
2023-03-18T22:25:28.683Z,98442.06
2023-03-18T22:27:57.046Z,98445.59
2023-03-18T22:30:25.876Z,98443.66
2023-03-18T22:32:53.731Z,98440.97
2023-03-18T22:35:23.896Z,98436.97
2023-03-18T22:37:51.377Z,98442.38
2023-03-18T22:40:23.949Z,98436.13
2023-03-18T22:42:53.917Z,98431.22
2023-03-18T22:45:28.021Z,98445.25
2023-03-18T22:48:01.305Z,98452.94
2023-03-18T22:50:31.471Z,98440.78
2023-03-18T22:53:02.355Z,98448.56
2023-03-18T22:55:33.858Z,98444.31
2023-03-18T22:58:01.445Z,98444.78
2023-03-18T23:00:46.538Z,98435.50
2023-03-18T23:03:21.355Z,98438.94
2023-03-18T23:05:51.880Z,98431.97
2023-03-18T23:08:20.759Z,98429.06
2023-03-18T23:10:50.082Z,98424.75
2023-03-18T23:13:30.261Z,98431.78
2023-03-18T23:15:58.531Z,98431.03
2023-03-18T23:18:25.818Z,98425.75
2023-03-18T23:20:58.281Z,98419.59
2023-03-18T23:23:25.738Z,98423.69
2023-03-18T23:25:52.796Z,98429.84
2023-03-18T23:28:19.937Z,98420.84
2023-03-18T23:30:49.217Z,98413.03
2023-03-18T23:33:16.949Z,98421.56
2023-03-18T23:35:45.080Z,98417.00
2023-03-18T23:38:12.208Z,98415.34
2023-03-18T23:40:39.402Z,98411.25
2023-03-18T23:43:08.069Z,98411.06
2023-03-18T23:45:37.082Z,98412.00
2023-03-18T23:48:04.815Z,98400.19
2023-03-18T23:50:31.952Z,98394.94
2023-03-18T23:52:59.434Z,98396.50
2023-03-18T23:55:34.541Z,98390.63
2023-03-18T23:58:03.450Z,98390.47
